Pays
Station

 

Conditions  météo  pour  St. Petersburg/Clearwater, St. Petersburg/Clearwater International Airport  -  Etats-Unis    Etats-Unis

  
27 °C
    
 
 

METAR pour St. Petersburg/Clearwater, St. Petersburg/Clearwater International Airport :

KPIE 230353Z AUTO 10007KT 10SM CLR 27/23 A3002 RMK AO2 SLP166 T02670228

 

Voici le bulletin pour St. Petersburg/Clearwater, St. Petersburg/Clearwater International Airport - Etats-Unis.
 
Le bulletin a été fait il y a 31 minutes, à 03:53 UTC .
Le vent soufflait à la vitesse de 3.6 mètres par seconde de Est (100°).
 
La température était de 27 °C, avec un point de rosée à 23 °C.
La température ressentie était de 30 °C.
 
La pression atmosphérique était de 1017 hPa.
L'humidité relative était de 78.8%.
 
Le ciel était clair.
 
La visibilité globale était de 16.1 kilomètres.
 

 
 
 

Pays :   A   B   C   D   E   F   G   H   I   J   K   L   M   N   O   P   Q   R   S   T   U   V   W   Y   Z

 

Partenaires :  Info Météo avec Met'info
Météo Marine avec MeteoMarine.net
Infos Site  |  Infos Légales  |  Crédits  |  Confidentialité
Contactez-nous  |  Ajouter aux favoris
© 2013-2018 METAR - Tous droits réservés